• Join FlightAware (Why Join?)
  • Login
  • US Flag 
04:20AM EDT


 

Airport Tracker/Info


-or-


 

Live Flight TrackerFlight Track Log ✈ UAL619 ✈ 07-Apr-2013 ✈ KMCO - KORD

Flight Track Log - Related Links

Times and Time Zones

All times are in EDT time to prevent confusion due to time zone crossing. See the UAL619 flight status page for this flight to view local times or setup timezone preferences in your user account.

Time Position Orientation Groundspeed Altitude Reporting Facility
EDT Latitude Longitude Course Direction KTS MPH feet Rate Location/Type
05:06PM 28.4167 -81.3167 270° West 177 204 500  Level Orlando TRACON
05:07PM 28.3833 -81.3500 221° Southwest 221 254 2,500 2,580 Climbing Orlando TRACON
05:08PM 28.3667 -81.4000 249° West 259 298 5,200 3,060 Climbing Orlando TRACON
05:09PM 28.4167 -81.6765 270° West  Level FlightAware Approximate
05:09PM 28.3667 -81.4833 270° West 249 287 8,400  Level Orlando TRACON
05:10PM 28.4167 -81.8020 270° West  Level FlightAware Approximate
05:10PM 28.3833 -81.5667 283° West 296 341 11,000  Level Orlando TRACON
05:11PM 28.4167 -81.9275 270° West  Level FlightAware Approximate
05:12PM 28.4189 -81.8233 279° West 363 418 16,000  Level Jacksonville Center
05:13PM 28.4386 -81.9436 281° West 384 442 17,900 2,280 Climbing Jacksonville Center
05:14PM 28.4583 -82.0661 280° West 391 450 20,600 2,340 Climbing Jacksonville Center
05:15PM 28.4778 -82.1864 280° West 391 450 22,600 1,800 Climbing Jacksonville Center
05:16PM 28.4950 -82.3161 279° West 401 461 24,200 1,740 Climbing Jacksonville Center
05:17PM 28.5603 -82.4222 305° West 401 461 26,100 1,560 Climbing Jacksonville Center
05:18PM 28.6689 -82.4928 330° Northwest 401 461 27,400 1,440 Climbing Jacksonville Center
05:19PM 28.7944 -82.5656 333° Northwest 432 497 29,000 1,860 Climbing Jacksonville Center
05:20PM 28.9050 -82.6317 332° Northwest 441 507 31,200 1,800 Climbing Jacksonville Center
05:21PM 29.0158 -82.6978 332° Northwest 446 513 32,700 1,320 Climbing Jacksonville Center
05:22PM 29.1267 -82.7642 332° Northwest 441 507 33,900 600 Climbing Jacksonville Center
05:23PM 29.2331 -82.8283 332° Northwest 441 507 33,900  Level Jacksonville Center
05:24PM 29.3394 -82.8925 332° Northwest 436 502 33,900  Level Jacksonville Center
05:25PM 29.4461 -82.9569 332° Northwest 436 502 34,000  Climbing Jacksonville Center
05:26PM 29.5442 -83.0192 331° Northwest 447 514 34,000 300 Level Jacksonville Center
05:27PM 29.6567 -83.0789 335° Northwest 442 509 34,600 600 Climbing Jacksonville Center
05:28PM 29.7694 -83.1319 338° Northwest 432 497 35,200 540 Climbing Jacksonville Center
05:29PM 29.8800 -83.1800 339° North 432 497 35,700 300 Climbing Jacksonville Center
05:30PM 29.9925 -83.2331 338° Northwest 432 497 35,900 120 Climbing Jacksonville Center
05:31PM 30.1072 -83.2864 338° Northwest 437 503 36,000  Climbing Jacksonville Center
05:32PM 30.2197 -83.3372 339° North 432 497 36,000 -60 Level Jacksonville Center
05:33PM 30.3344 -83.3908 338° Northwest 432 497 35,900  Descending Jacksonville Center
05:34PM 30.4469 -83.4444 338° Northwest 432 497 36,000  Climbing Jacksonville Center
05:35PM 30.5617 -83.4981 338° Northwest 432 497 36,000  Level Jacksonville Center
05:36PM 30.6761 -83.5519 338° Northwest 432 497 36,000  Level Jacksonville Center
05:37PM 30.7886 -83.6036 338° Northwest 432 497 36,000  Level Jacksonville Center
05:38PM 30.9031 -83.6600 337° Northwest 432 497 36,000  Level Jacksonville Center
05:40PM 31.0889 -83.7528 337° Northwest 440 506 36,000  Level Atlanta Center
05:41PM 31.2017 -83.8058 338° Northwest 440 506 36,000  Level Atlanta Center
05:42PM 31.3144 -83.8614 337° Northwest 440 506 36,000  Level Atlanta Center
05:43PM 31.4294 -83.9172 337° Northwest 440 506 36,000  Level Atlanta Center
05:44PM 31.5461 -83.9658 340° North 440 506 36,000  Level Atlanta Center
05:45PM 31.6819 -83.9975 349° North 440 506 36,000  Level Atlanta Center
05:46PM 31.8050 -84.0242 350° North 445 512 36,000  Level Atlanta Center
05:47PM 31.9283 -84.0486 350° North 450 518 36,000  Level Atlanta Center
05:48PM 32.0533 -84.0756 350° North 450 518 36,000  Level Atlanta Center
05:49PM 32.1767 -84.1050 349° North 450 518 36,000  Level Atlanta Center
05:50PM 32.2997 -84.1322 349° North 450 518 36,000  Level Atlanta Center
05:51PM 32.4250 -84.1594 350° North 450 518 36,000  Level Atlanta Center
05:52PM 32.5458 -84.1892 348° North 450 518 36,000  Level Atlanta Center
05:53PM 32.6711 -84.2164 350° North 450 518 36,000  Level Atlanta Center
05:54PM 32.7900 -84.2464 348° North 450 518 36,000  Level Atlanta Center
05:55PM 32.8986 -84.2714 349° North 445 512 36,000  Level Atlanta Center
05:56PM 33.0194 -84.2989 349° North 445 512 36,000  Level Atlanta Center
05:57PM 33.1386 -84.3267 349° North 440 506 36,000  Level Atlanta Center
05:58PM 33.2553 -84.3544 349° North 432 497 36,000  Level Atlanta Center
05:59PM 33.3847 -84.3822 350° North 432 497 36,000  Level Atlanta Center
06:00PM 33.5056 -84.4100 349° North 432 497 36,000  Level Atlanta Center
06:01PM 33.6183 -84.4356 349° North 427 491 36,000  Level Atlanta Center
06:02PM 33.7414 -84.4661 348° North 434 499 36,000  Level Atlanta Center
06:03PM 33.8644 -84.4942 349° North 434 499 36,000  Level Atlanta Center
06:04PM 33.9603 -84.5172 349° North 434 499 36,000  Level Atlanta Center
06:05PM 34.1064 -84.5531 349° North 439 505 36,000  Level Atlanta Center
06:06PM 34.2147 -84.5789 349° North 446 513 36,000  Level Atlanta Center
06:07PM 34.3356 -84.5997 352° North 441 507 36,000  Level Atlanta Center
06:08PM 34.4692 -84.6108 356° North 436 502 36,000  Level Atlanta Center
06:09PM 34.5903 -84.6217 356° North 436 502 36,000  Level Atlanta Center
06:10PM 34.7092 -84.6275 358° North 436 502 36,000  Level Atlanta Center
06:11PM 34.8322 -84.6361 357° North 436 502 36,000  Level Atlanta Center
06:12PM 34.9553 -84.6444 357° North 436 502 36,000  Level Atlanta Center
06:13PM 35.0761 -84.6531 357° North 441 507 36,000  Level Atlanta Center
06:14PM 35.1972 -84.6589 358° North 441 507 36,000  Level Atlanta Center
06:15PM 35.3183 -84.6650 358° North 441 507 36,000  Level Atlanta Center
06:16PM 35.4411 -84.6786 355° North 441 507 36,000  Level Atlanta Center
06:17PM 35.5600 -84.6897 356° North 441 507 36,000  Level Atlanta Center
06:18PM 35.6769 -84.7033 355° North 436 502 36,000  Level Atlanta Center
06:19PM 35.7978 -84.7147 356° North 436 502 36,000  Level Atlanta Center
06:21PM 36.0514 -84.7406 355° North 431 496 36,000  Level Indianapolis Center
06:22PM 36.1939 -84.7564 355° North 430 495 36,000  Level Indianapolis Center
06:23PM 36.3139 -84.7700 355° North 433 498 36,000  Level Indianapolis Center
06:24PM 36.4342 -84.7753 358° North 436 502 36,000  Level Indianapolis Center
06:25PM 36.5592 -84.7422 12° North 455 524 36,000  Level Indianapolis Center
06:26PM 36.6817 -84.6983 16° North 462 532 36,000  Level Indianapolis Center
06:27PM 36.8014 -84.6342 23° Northeast 467 537 36,000  Level Indianapolis Center
06:28PM 36.9464 -84.5603 22° Northeast 467 537 36,000  Level Indianapolis Center
06:29PM 37.0708 -84.4981 22° Northeast 467 537 36,000  Level Indianapolis Center
06:30PM 37.1925 -84.4364 22° Northeast 469 540 36,000  Level Indianapolis Center
06:31PM 37.3122 -84.3725 23° Northeast 465 535 36,000  Level Indianapolis Center
06:32PM 37.4339 -84.3119 22° Northeast 467 537 36,000  Level Indianapolis Center
06:33PM 37.5569 -84.2978 North 444 511 36,000  Level Indianapolis Center
06:34PM 37.6758 -84.3117 355° North 428 493 36,000  Level Indianapolis Center
06:35PM 37.8119 -84.3256 355° North 417 480 36,000  Level Indianapolis Center
06:36PM 37.9211 -84.3589 346° North 401 461 36,000  Level Indianapolis Center
06:37PM 38.0183 -84.4125 337° Northwest 382 440 36,000  Level Indianapolis Center
06:38PM 38.1097 -84.4753 332° Northwest 374 430 36,000  Level Indianapolis Center
06:39PM 38.1989 -84.5483 327° Northwest 379 436 36,000  Level Indianapolis Center
06:41PM 38.2997 -84.6342 326° Northwest 375 432 36,000  Level Indianapolis Center
06:42PM 38.3881 -84.7058 328° Northwest 375 432 36,000  Level Indianapolis Center
06:43PM 38.4750 -84.7794 326° Northwest 374 430 36,000  Level Indianapolis Center
06:44PM 38.5631 -84.8506 328° Northwest 372 428 36,000  Level Indianapolis Center
06:45PM 38.6536 -84.9264 327° Northwest 372 428 36,000 -300 Level Indianapolis Center
06:46PM 38.7425 -85.0011 327° Northwest 378 435 35,400 -780 Descending Indianapolis Center
06:47PM 38.8331 -85.0750 328° Northwest 382 440 34,400 -960 Descending Indianapolis Center
06:48PM 38.9228 -85.1517 326° Northwest 383 441 33,500 -1,020 Descending Indianapolis Center
06:49PM 39.0283 -85.2400 327° Northwest 385 443 32,300 -1,020 Descending Indianapolis Center
06:50PM 39.1342 -85.2919 339° North 406 467 31,400 -1,020 Descending Indianapolis Center
06:51PM 39.2553 -85.3239 348° North 437 503 30,300 -1,140 Descending Indianapolis Center
06:52PM 39.3742 -85.3572 348° North 435 501 29,100 -1,200 Descending Indianapolis Center
06:53PM 39.4892 -85.3906 347° North 425 489 27,900 -1,200 Descending Indianapolis Center
06:54PM 39.6033 -85.4236 347° North 421 484 26,700 -960 Descending Indianapolis Center
06:55PM 39.7142 -85.4544 348° North 411 473 26,000 -360 Descending Indianapolis Center
06:56PM 39.8469 -85.4919 348° North 414 476 26,000  Level Indianapolis Center
06:57PM 39.9633 -85.5253 348° North 424 488 26,000  Level Indianapolis Center
06:58PM 40.0794 -85.5581 348° North 425 489 26,000  Level Indianapolis Center
06:59PM 40.1764 -85.5861 348° North 425 489 26,000  Level Chicago Center
07:00PM 40.2925 -85.6178 348° North 424 488 26,000  Level Chicago Center
07:01PM 40.4097 -85.6531 347° North 428 493 26,000 -360 Level Chicago Center
07:02PM 40.5269 -85.6897 347° North 431 496 25,300 -840 Descending Chicago Center
07:03PM 40.6367 -85.7367 342° North 416 479 24,300 -660 Descending Chicago Center
07:04PM 40.7092 -85.8400 313° West 391 450 24,000 -480 Descending Chicago Center
07:05PM 40.7681 -85.9589 303° West 386 444 23,400 -780 Descending Chicago Center
07:06PM 40.8278 -86.0808 303° West 393 452 22,400 -720 Descending Chicago Center
07:07PM 40.8989 -86.2253 303° West 391 450 22,000 -240 Descending Chicago Center
07:08PM 40.9572 -86.3450 303° West 389 448 22,000  Level Chicago Center
07:09PM 41.0161 -86.4669 303° West 392 451 22,000 -360 Level Chicago Center
07:10PM 41.0744 -86.5872 303° West 389 448 21,300 -1,260 Descending Chicago Center
07:11PM 41.1314 -86.7069 302° West 383 441 19,500 -1,800 Descending Chicago Center
07:12PM 41.1942 -86.8333 303° West 377 434 17,600 -1,740 Descending Chicago Center
07:13PM 41.2456 -86.9444 302° West 358 412 16,000 -1,560 Descending Chicago Center
07:14PM 41.2961 -87.0514 302° West 346 398 14,400 -1,440 Descending Chicago Center
07:15PM 41.3472 -87.1586 302° West 346 398 13,100 -1,560 Descending Chicago Center
07:16PM 41.4167 -87.2500 315° West 334 384 11,400 -1,140 Descending Chicago TRACON
07:17PM 41.4833 -87.3333 317° Northwest 336 387 11,000 -360 Descending Chicago TRACON
07:18PM 41.5500 -87.4167 317° Northwest 332 382 10,800 -240 Descending Chicago TRACON
07:18PM 41.5625 -87.4275 327° Northwest 333 383 10,700 -660 Descending Chicago Center
07:19PM 41.6331 -87.5025 322° Northwest 329 379 10,000 -480 Descending Chicago Center
07:21PM 41.6950 -87.5728 320° Northwest 290 334 9,800 -900 Descending Chicago Center
07:22PM 41.7600 -87.6458 320° Northwest 261 300 8,200 -1,500 Descending Chicago Center
07:22PM 41.7833 -87.6833 310° West 254 292 7,600 -840 Descending Chicago TRACON
07:23PM 41.8333 -87.7333 323° Northwest 251 289 7,000 -300 Descending Chicago TRACON
07:24PM 41.8500 -87.8167 285° West 219 252 7,000 -300 Level Chicago TRACON
07:25PM 41.8333 -87.8833 251° West 174 200 6,500 -660 Descending Chicago TRACON
07:26PM 41.8161 -87.9242 241° Southwest 178 205 5,900 -960 Descending Chicago Center
07:27PM 41.7858 -87.9706 229° Southwest 170 196 4,900 -960 Descending Chicago Center
07:28PM 41.7925 -88.0211 280° West 175 201 4,000 -540 Descending Chicago Center
07:29PM 41.8367 -88.0311 350° North 181 208 3,800 -660 Descending Chicago Center
07:30PM 41.8783 -87.9906 36° Northeast 183 211 2,700 -1,020 Descending Chicago Center
07:31PM 41.9147 -87.9458 42° Northeast 183 211 1,800 -720 Descending Chicago Center
07:32PM 41.9461 -87.9092 41° Northeast 166 191 1,300 -540 Descending Chicago Center